createdAt,value
2019-06-11T00:02:11.525Z,17.56
2019-06-11T00:04:24.356Z,17.56
2019-06-11T00:06:54.338Z,17.56
2019-06-11T00:09:23.729Z,17.43
2019-06-11T00:11:52.599Z,17.45
2019-06-11T00:14:23.049Z,17.40
2019-06-11T00:16:53.633Z,17.31
2019-06-11T00:19:22.961Z,17.31
2019-06-11T00:21:52.482Z,17.33
2019-06-11T00:24:22.586Z,17.36
2019-06-11T00:26:53.044Z,17.44
2019-06-11T00:29:22.891Z,17.42
2019-06-11T00:31:53.220Z,17.42
2019-06-11T00:34:22.922Z,17.47
2019-06-11T00:36:52.774Z,17.38
2019-06-11T00:39:22.446Z,17.38
2019-06-11T00:41:52.765Z,17.31
2019-06-11T00:44:23.253Z,17.20
2019-06-11T00:46:53.326Z,17.17
2019-06-11T00:49:23.231Z,17.05
2019-06-11T00:51:52.304Z,17.05
2019-06-11T00:54:23.156Z,17.20
2019-06-11T00:56:52.140Z,17.17
2019-06-11T00:59:23.271Z,17.20
2019-06-11T01:01:52.691Z,17.13
2019-06-11T01:04:23.208Z,17.01
2019-06-11T01:06:52.842Z,17.17
2019-06-11T01:09:23.590Z,17.16
2019-06-11T01:11:52.987Z,17.16
2019-06-11T01:14:23.942Z,16.87
2019-06-11T01:16:52.947Z,16.87
2019-06-11T01:19:23.361Z,16.75
2019-06-11T01:21:52.383Z,16.75
2019-06-11T01:24:23.069Z,16.70
2019-06-11T01:26:52.067Z,16.62
2019-06-11T01:29:22.835Z,16.75
2019-06-11T01:31:53.199Z,16.66
2019-06-11T01:34:22.416Z,16.66
2019-06-11T01:36:52.430Z,16.66
2019-06-11T01:39:22.249Z,16.66
2019-06-11T01:41:53.161Z,16.79
2019-06-11T01:44:23.093Z,16.79
2019-06-11T01:46:52.812Z,16.79
2019-06-11T01:49:22.290Z,16.68
2019-06-11T01:51:52.855Z,16.58
2019-06-11T01:54:22.447Z,16.59
2019-06-11T01:56:52.481Z,16.45
2019-06-11T01:59:23.232Z,16.45
2019-06-11T02:01:52.321Z,16.36
2019-06-11T02:04:22.841Z,16.38
2019-06-11T02:06:53.251Z,16.36
2019-06-11T02:09:22.834Z,16.46
2019-06-11T02:11:52.177Z,16.47
2019-06-11T02:14:22.729Z,16.46
2019-06-11T02:16:53.278Z,16.52
2019-06-11T02:19:24.265Z,16.38
2019-06-11T02:21:52.489Z,16.39
2019-06-11T02:24:23.222Z,16.52
2019-06-11T02:26:52.761Z,16.40
2019-06-11T02:29:22.255Z,16.29
2019-06-11T02:31:53.782Z,16.29
2019-06-11T02:34:47.434Z,16.16
2019-06-11T02:36:52.575Z,16.06
2019-06-11T02:39:27.120Z,16.10
2019-06-11T02:41:52.220Z,16.25
2019-06-11T02:44:27.807Z,16.17
2019-06-11T02:46:51.799Z,16.24
2019-06-11T02:49:26.786Z,16.31
2019-06-11T02:51:52.323Z,16.26
2019-06-11T02:54:28.042Z,16.24
2019-06-11T02:56:52.495Z,16.24
2019-06-11T02:59:28.473Z,16.11
2019-06-11T03:01:51.656Z,16.04
2019-06-11T03:04:46.997Z,16.08
2019-06-11T03:06:53.078Z,15.95
2019-06-11T03:09:29.267Z,15.97
2019-06-11T03:11:54.019Z,16.02
2019-06-11T03:14:30.446Z,15.97
2019-06-11T03:16:56.111Z,16.04
2019-06-11T03:19:33.602Z,16.08
2019-06-11T03:21:56.114Z,16.06
2019-06-11T03:24:28.932Z,15.97
2019-06-11T03:26:55.387Z,15.84
2019-06-11T03:29:27.867Z,15.95
2019-06-11T03:35:15.332Z,15.84
2019-06-11T03:37:27.745Z,15.85
2019-06-11T03:39:47.501Z,15.77
2019-06-11T03:41:57.178Z,15.60
2019-06-11T03:44:30.709Z,15.66
2019-06-11T03:46:56.267Z,15.75
2019-06-11T03:49:31.464Z,15.52
2019-06-11T03:51:55.365Z,15.55
2019-06-11T03:54:29.249Z,15.46
2019-06-11T03:56:54.417Z,15.42
2019-06-11T03:59:28.813Z,15.28
2019-06-11T04:01:53.636Z,15.31
2019-06-11T04:04:28.505Z,15.36
2019-06-11T04:07:09.607Z,15.35
2019-06-11T04:09:29.294Z,15.36
2019-06-11T04:11:53.499Z,15.41
2019-06-11T04:14:25.733Z,15.51
2019-06-11T04:17:11.144Z,15.57
2019-06-11T04:19:27.549Z,15.50
2019-06-11T04:21:53.431Z,15.48
2019-06-11T04:24:28.755Z,15.61
2019-06-11T04:26:52.473Z,15.48
2019-06-11T04:29:27.510Z,15.45
2019-06-11T04:31:51.884Z,15.51
2019-06-11T04:34:30.157Z,15.42
2019-06-11T04:37:04.688Z,15.41
2019-06-11T04:39:26.400Z,15.37
2019-06-11T04:41:52.054Z,15.42
2019-06-11T04:44:25.560Z,15.43
2019-06-11T04:46:51.628Z,15.42
2019-06-11T04:49:26.642Z,15.53
2019-06-11T04:51:51.465Z,15.47
2019-06-11T04:54:25.390Z,15.42
2019-06-11T04:56:52.579Z,15.43
2019-06-11T04:59:28.424Z,15.50
2019-06-11T05:06:53.969Z,15.54
2019-06-11T05:09:28.911Z,15.56
2019-06-11T05:11:53.149Z,15.55
2019-06-11T05:14:33.748Z,15.64
2019-06-11T05:16:52.677Z,15.76
2019-06-11T05:19:28.614Z,15.86
2019-06-11T05:21:51.701Z,15.88
2019-06-11T05:24:25.872Z,15.97
2019-06-11T05:26:51.325Z,15.97
2019-06-11T05:29:25.107Z,15.84
2019-06-11T05:31:51.911Z,15.92
2019-06-11T05:34:24.015Z,16.09
2019-06-11T05:36:51.798Z,16.05
2019-06-11T05:39:24.058Z,16.15
2019-06-11T05:41:50.996Z,16.31
2019-06-11T05:47:55.169Z,16.17
2019-06-11T05:50:26.028Z,16.38
2019-06-11T05:52:55.748Z,16.47
2019-06-11T05:55:25.421Z,16.50
2019-06-11T05:57:54.414Z,16.48
2019-06-11T06:00:24.049Z,16.37
2019-06-11T06:02:52.819Z,16.33
2019-06-11T06:05:22.885Z,16.38
2019-06-11T06:07:51.803Z,16.39
2019-06-11T06:10:22.096Z,16.36
2019-06-11T06:12:51.415Z,16.35
2019-06-11T06:15:22.054Z,16.42
2019-06-11T06:17:50.740Z,16.44
2019-06-11T06:20:19.983Z,16.55
2019-06-11T06:22:50.119Z,16.67
2019-06-11T06:25:22.304Z,16.87
2019-06-11T06:27:51.174Z,16.97
2019-06-11T06:30:21.183Z,16.86
2019-06-11T06:32:51.755Z,16.95
2019-06-11T06:35:20.802Z,17.09
2019-06-11T06:37:50.721Z,17.25
2019-06-11T06:40:20.861Z,17.26
2019-06-11T06:42:51.098Z,17.22
2019-06-11T06:45:20.515Z,17.22
2019-06-11T06:47:50.302Z,17.70
2019-06-11T06:50:22.063Z,17.70
2019-06-11T06:52:51.577Z,17.67
2019-06-11T06:55:20.757Z,17.83
2019-06-11T06:57:50.915Z,17.86
2019-06-11T07:00:20.742Z,17.63
2019-06-11T07:02:51.058Z,17.82
2019-06-11T07:05:20.684Z,17.95
2019-06-11T07:07:51.440Z,17.52
2019-06-11T07:10:20.396Z,17.70
2019-06-11T07:12:50.635Z,17.98
2019-06-11T07:15:21.055Z,18.11
2019-06-11T07:17:50.855Z,17.68
2019-06-11T07:20:21.351Z,17.66
2019-06-11T07:22:51.022Z,17.66
2019-06-11T07:25:21.110Z,18.33
2019-06-11T07:27:51.549Z,18.33
2019-06-11T07:30:21.621Z,18.73
2019-06-11T07:32:51.750Z,18.79
2019-06-11T07:35:20.634Z,18.76
2019-06-11T07:37:50.792Z,18.58
2019-06-11T07:40:22.341Z,18.65
2019-06-11T07:42:50.998Z,18.65
2019-06-11T07:45:21.300Z,18.49
2019-06-11T07:47:51.711Z,18.52
2019-06-11T07:50:20.938Z,18.22
2019-06-11T07:52:51.746Z,18.52
2019-06-11T07:55:21.288Z,18.77
2019-06-11T07:57:53.873Z,19.03
2019-06-11T08:00:21.986Z,19.09
2019-06-11T08:02:52.363Z,19.34
2019-06-11T08:05:21.430Z,19.34
2019-06-11T08:08:00.139Z,19.25
2019-06-11T08:10:28.961Z,19.08
2019-06-11T08:13:01.401Z,19.08
2019-06-11T08:15:22.900Z,19.38
2019-06-11T08:17:57.663Z,19.38
2019-06-11T08:20:55.829Z,18.69
2019-06-11T08:23:03.015Z,19.23
2019-06-11T08:25:25.084Z,19.46
2019-06-11T08:28:06.553Z,19.63
2019-06-11T08:30:23.944Z,19.63
2019-06-11T08:32:52.656Z,19.47
2019-06-11T08:35:21.428Z,19.47
2019-06-11T08:37:50.961Z,19.38
2019-06-11T08:40:23.544Z,18.67
2019-06-11T08:42:51.437Z,18.72
2019-06-11T08:45:23.554Z,18.72
2019-06-11T08:47:50.838Z,18.83
2019-06-11T08:50:20.956Z,18.83
2019-06-11T08:52:50.411Z,19.11
2019-06-11T08:55:20.457Z,19.06
2019-06-11T08:57:52.916Z,19.06
2019-06-11T09:00:37.610Z,19.26
2019-06-11T09:02:52.458Z,19.26
2019-06-11T09:05:21.180Z,19.67
2019-06-11T09:07:51.832Z,19.88
2019-06-11T09:10:30.269Z,20.09
2019-06-11T09:12:51.713Z,20.09
2019-06-11T09:15:21.464Z,20.13
2019-06-11T09:17:53.024Z,20.28
2019-06-11T09:20:20.696Z,20.61
2019-06-11T09:22:53.183Z,20.48
2019-06-11T09:25:20.337Z,20.48
2019-06-11T09:27:52.613Z,20.70
2019-06-11T09:30:22.063Z,20.81
2019-06-11T09:32:51.654Z,20.76
2019-06-11T09:35:20.728Z,20.76
2019-06-11T09:37:51.511Z,20.37
2019-06-11T09:40:20.987Z,20.46
2019-06-11T09:42:52.234Z,20.45
2019-06-11T09:45:21.240Z,20.09
2019-06-11T09:47:59.681Z,20.25
2019-06-11T09:50:21.348Z,20.25
2019-06-11T09:52:53.710Z,20.50
2019-06-11T09:55:21.007Z,20.40
2019-06-11T09:57:56.796Z,20.15
2019-06-11T10:00:22.987Z,20.50
2019-06-11T10:02:53.690Z,20.93
2019-06-11T10:05:22.127Z,21.24
2019-06-11T10:07:53.947Z,21.26
2019-06-11T10:10:37.288Z,21.55
2019-06-11T10:12:52.991Z,21.55
2019-06-11T10:15:22.000Z,21.50
2019-06-11T10:17:50.822Z,21.49
2019-06-11T10:20:20.860Z,21.70
2019-06-11T10:22:55.228Z,21.51
2019-06-11T10:25:20.911Z,21.59
2019-06-11T10:27:51.706Z,21.63
2019-06-11T10:30:21.109Z,21.89
2019-06-11T10:32:52.496Z,21.94
2019-06-11T10:35:20.292Z,22.18
2019-06-11T10:37:51.210Z,22.39
2019-06-11T10:40:21.030Z,22.11
2019-06-11T10:42:51.592Z,22.41
2019-06-11T10:45:20.990Z,22.10
2019-06-11T10:47:51.522Z,22.23
2019-06-11T10:50:21.462Z,22.46
2019-06-11T10:52:54.781Z,22.35
2019-06-11T10:55:20.832Z,22.59
2019-06-11T10:57:52.144Z,22.57
2019-06-11T11:00:21.266Z,22.28
2019-06-11T11:02:52.500Z,22.25
2019-06-11T11:05:20.981Z,22.09
2019-06-11T11:07:52.376Z,22.00
2019-06-11T11:10:20.877Z,21.85
2019-06-11T11:12:52.200Z,21.48
2019-06-11T11:15:20.301Z,21.35
2019-06-11T11:17:49.695Z,21.53
2019-06-11T11:20:21.030Z,21.71
2019-06-11T11:22:50.768Z,21.68
2019-06-11T11:25:20.267Z,21.47
2019-06-11T11:28:00.609Z,21.62
2019-06-11T11:30:19.773Z,21.79
2019-06-11T11:32:51.065Z,22.12
2019-06-11T11:35:21.035Z,22.33
2019-06-11T11:37:52.491Z,22.29
2019-06-11T11:40:34.907Z,22.27
2019-06-11T11:43:04.758Z,22.30
2019-06-11T11:45:33.713Z,22.35
2019-06-11T11:48:03.457Z,22.17
2019-06-11T11:50:33.804Z,21.77
2019-06-11T11:53:04.254Z,21.72
2019-06-11T11:55:34.763Z,21.30
2019-06-11T11:58:04.499Z,21.38
2019-06-11T12:00:37.577Z,21.22
2019-06-11T12:03:06.303Z,21.05
2019-06-11T12:05:34.923Z,20.72
2019-06-11T12:08:03.697Z,20.93
2019-06-11T12:10:32.337Z,20.97
2019-06-11T12:13:06.042Z,20.85
2019-06-11T12:15:31.436Z,20.85
2019-06-11T12:18:02.316Z,20.83
2019-06-11T12:20:31.650Z,20.69
2019-06-11T12:23:07.911Z,20.65
2019-06-11T12:25:37.230Z,20.75
2019-06-11T12:28:04.533Z,20.87
2019-06-11T12:30:31.841Z,20.69
2019-06-11T12:33:00.454Z,20.84
2019-06-11T12:35:31.357Z,20.87
2019-06-11T12:38:01.816Z,20.87
2019-06-11T12:40:32.324Z,20.97
2019-06-11T12:43:22.517Z,21.02
2019-06-11T12:45:31.385Z,21.16
2019-06-11T12:48:02.869Z,21.30
2019-06-11T12:50:31.666Z,21.29
2019-06-11T12:53:06.700Z,21.17
2019-06-11T12:55:31.026Z,21.17
2019-06-11T12:58:04.239Z,21.20
2019-06-11T13:00:31.287Z,21.16
2019-06-11T13:03:02.782Z,21.16
2019-06-11T13:05:31.413Z,21.17
2019-06-11T13:08:06.055Z,21.16
2019-06-11T13:10:32.434Z,20.94
2019-06-11T13:13:05.741Z,20.88
2019-06-11T13:15:31.803Z,21.17
2019-06-11T13:18:02.683Z,21.40
2019-06-11T13:20:30.866Z,21.47
2019-06-11T13:23:01.353Z,21.46
2019-06-11T13:25:30.032Z,21.47
2019-06-11T13:28:01.921Z,21.52
2019-06-11T13:30:31.590Z,21.15
2019-06-11T13:33:03.063Z,21.45
2019-06-11T13:35:30.459Z,21.50
2019-06-11T13:38:07.479Z,21.56
2019-06-11T13:40:31.075Z,22.17
2019-06-11T13:43:03.056Z,22.49
2019-06-11T13:45:32.764Z,22.83
2019-06-11T13:48:04.611Z,22.92
2019-06-11T13:50:31.769Z,23.06
2019-06-11T13:53:00.815Z,22.97
2019-06-11T13:55:31.254Z,22.44
2019-06-11T13:58:01.477Z,22.73
2019-06-11T14:00:30.955Z,22.57
2019-06-11T14:03:05.511Z,22.69
2019-06-11T14:05:32.025Z,22.69
2019-06-11T14:08:03.370Z,22.70
2019-06-11T14:10:34.634Z,22.86
2019-06-11T14:13:04.163Z,23.09
2019-06-11T14:15:31.930Z,22.99
2019-06-11T14:18:05.338Z,23.14
2019-06-11T14:20:31.801Z,23.32
2019-06-11T14:23:03.763Z,23.09
2019-06-11T14:25:31.776Z,23.34
2019-06-11T14:28:05.285Z,23.44
2019-06-11T14:30:32.398Z,23.42
2019-06-11T14:33:05.053Z,23.40
2019-06-11T14:35:35.458Z,23.37
2019-06-11T14:38:11.053Z,22.80
2019-06-11T14:40:41.856Z,22.74
2019-06-11T14:43:12.147Z,22.74
2019-06-11T14:45:41.959Z,22.81
2019-06-11T14:48:11.232Z,22.75
2019-06-11T14:50:40.367Z,22.82
2019-06-11T14:53:11.292Z,22.76
2019-06-11T14:55:40.612Z,22.80
2019-06-11T14:58:11.426Z,22.73
2019-06-11T15:00:41.663Z,22.62
2019-06-11T15:03:13.533Z,22.49
2019-06-11T15:05:42.082Z,22.04
2019-06-11T15:08:14.280Z,22.24
2019-06-11T15:10:41.457Z,22.38
2019-06-11T15:13:12.406Z,22.56
2019-06-11T15:15:41.620Z,22.67
2019-06-11T15:18:15.861Z,22.54
2019-06-11T15:20:48.767Z,22.00
2019-06-11T15:23:12.819Z,22.27
2019-06-11T15:25:41.992Z,22.53
2019-06-11T15:28:14.293Z,22.55
2019-06-11T15:30:41.173Z,22.66
2019-06-11T15:33:13.532Z,22.56
2019-06-11T15:35:42.736Z,22.39
2019-06-11T15:38:16.858Z,22.06
2019-06-11T15:40:41.077Z,22.22
2019-06-11T15:43:14.303Z,22.25
2019-06-11T15:45:43.985Z,22.45
2019-06-11T15:48:14.876Z,22.61
2019-06-11T15:50:42.615Z,22.79
2019-06-11T15:53:13.895Z,22.94
2019-06-11T15:55:42.322Z,22.68
2019-06-11T15:58:11.667Z,22.45
2019-06-11T16:00:42.194Z,22.61
2019-06-11T16:03:12.930Z,22.71
2019-06-11T16:05:41.956Z,22.75
2019-06-11T16:08:13.067Z,22.84
2019-06-11T16:10:41.633Z,22.90
2019-06-11T16:13:16.664Z,23.02
2019-06-11T16:15:47.149Z,23.17
2019-06-11T16:18:15.012Z,23.25
2019-06-11T16:20:41.869Z,23.39
2019-06-11T16:23:13.086Z,23.44
2019-06-11T16:25:40.973Z,23.21
2019-06-11T16:28:13.482Z,23.33
2019-06-11T16:30:40.087Z,23.63
2019-06-11T16:33:12.491Z,23.87
2019-06-11T16:35:40.696Z,23.90
2019-06-11T16:38:10.882Z,23.81
2019-06-11T16:40:41.245Z,23.64
2019-06-11T16:43:13.632Z,23.39
2019-06-11T16:45:56.822Z,23.28
2019-06-11T16:48:13.564Z,23.52
2019-06-11T16:50:41.189Z,23.77
2019-06-11T16:53:13.154Z,23.80
2019-06-11T16:55:40.604Z,23.55
2019-06-11T16:58:09.770Z,23.63
2019-06-11T17:00:41.059Z,23.60
2019-06-11T17:03:13.725Z,23.20
2019-06-11T17:05:41.107Z,23.02
2019-06-11T17:08:13.296Z,22.72
2019-06-11T17:10:40.967Z,22.86
2019-06-11T17:13:12.288Z,22.79
2019-06-11T17:15:43.750Z,22.79
2019-06-11T17:18:14.249Z,23.09
2019-06-11T17:20:41.337Z,23.22
2019-06-11T17:23:10.987Z,23.20
2019-06-11T17:25:40.694Z,23.39
2019-06-11T17:28:11.503Z,23.59
2019-06-11T17:30:39.829Z,23.62
2019-06-11T17:33:10.688Z,23.60
2019-06-11T17:35:41.147Z,23.64
2019-06-11T17:38:10.656Z,23.67
2019-06-11T17:40:40.719Z,23.41
2019-06-11T17:43:09.807Z,23.37
2019-06-11T17:45:41.337Z,23.24
2019-06-11T17:48:13.248Z,23.14
2019-06-11T17:50:41.169Z,23.09
2019-06-11T17:53:14.232Z,22.76
2019-06-11T17:55:44.307Z,22.59
2019-06-11T17:58:14.082Z,22.73
2019-06-11T18:00:42.862Z,22.42
2019-06-11T18:03:11.703Z,22.54
2019-06-11T18:05:42.119Z,22.58
2019-06-11T18:08:11.731Z,22.52
2019-06-11T18:10:41.268Z,22.60
2019-06-11T18:13:10.983Z,22.68
2019-06-11T18:15:40.924Z,22.65
2019-06-11T18:18:11.042Z,22.48
2019-06-11T18:20:41.373Z,22.29
2019-06-11T18:23:12.150Z,22.09
2019-06-11T18:25:41.153Z,21.93
2019-06-11T18:28:10.021Z,21.57
2019-06-11T18:30:41.604Z,21.41
2019-06-11T18:33:11.219Z,21.39
2019-06-11T18:35:40.570Z,21.59
2019-06-11T18:38:09.710Z,21.75
2019-06-11T18:40:41.027Z,21.85
2019-06-11T18:43:10.688Z,21.77
2019-06-11T18:45:40.988Z,21.86
2019-06-11T18:48:10.167Z,21.95
2019-06-11T18:50:40.492Z,22.00
2019-06-11T18:53:10.686Z,22.01
2019-06-11T18:55:41.519Z,21.81
2019-06-11T18:58:11.469Z,21.58
2019-06-11T19:00:40.752Z,21.59
2019-06-11T19:03:11.554Z,21.38
2019-06-11T19:05:40.566Z,20.86
2019-06-11T19:08:11.861Z,20.78
2019-06-11T19:10:41.297Z,20.77
2019-06-11T19:13:11.416Z,20.62
2019-06-11T19:15:40.538Z,20.65
2019-06-11T19:18:10.447Z,20.69
2019-06-11T19:20:39.511Z,20.75
2019-06-11T19:23:11.045Z,20.50
2019-06-11T19:25:40.218Z,20.50
2019-06-11T19:28:14.117Z,20.62
2019-06-11T19:30:41.093Z,20.66
2019-06-11T19:33:10.861Z,20.72
2019-06-11T19:35:40.322Z,20.85
2019-06-11T19:38:11.656Z,20.86
2019-06-11T19:40:41.891Z,20.88
2019-06-11T19:43:10.725Z,20.89
2019-06-11T19:45:42.604Z,20.84
2019-06-11T19:48:10.799Z,20.85
2019-06-11T19:50:40.499Z,20.80
2019-06-11T19:53:10.362Z,20.65
2019-06-11T19:55:41.079Z,20.58
2019-06-11T19:58:11.199Z,20.57
2019-06-11T20:00:41.457Z,20.58
2019-06-11T20:03:10.627Z,20.56
2019-06-11T20:05:39.798Z,20.37
2019-06-11T20:08:10.760Z,20.37
2019-06-11T20:10:44.618Z,20.31
2019-06-11T20:13:10.421Z,20.31
2019-06-11T20:15:41.135Z,20.29
2019-06-11T20:18:10.805Z,20.24
2019-06-11T20:20:40.725Z,20.14
2019-06-11T20:25:43.179Z,20.16
2019-06-11T20:28:12.084Z,20.08
2019-06-11T20:30:41.002Z,20.16
2019-06-11T20:33:10.912Z,20.02
2019-06-11T20:35:41.632Z,19.73
2019-06-11T20:38:10.553Z,19.62
2019-06-11T20:40:42.005Z,19.84
2019-06-11T20:43:10.974Z,19.88
2019-06-11T20:45:44.330Z,19.85
2019-06-11T20:48:22.148Z,19.93
2019-06-11T20:50:41.398Z,19.91
2019-06-11T20:53:10.975Z,19.91
2019-06-11T20:55:42.912Z,19.82
2019-06-11T20:58:10.478Z,19.81
2019-06-11T21:00:44.312Z,19.80
2019-06-11T21:03:10.646Z,19.71
2019-06-11T21:05:41.766Z,19.71
2019-06-11T21:08:11.275Z,19.70
2019-06-11T21:10:43.500Z,19.53
2019-06-11T21:13:11.070Z,19.50
2019-06-11T21:15:44.451Z,19.38
2019-06-11T21:18:11.139Z,19.37
2019-06-11T21:20:41.473Z,19.28
2019-06-11T21:23:10.825Z,19.29
2019-06-11T21:25:41.824Z,19.07
2019-06-11T21:28:10.957Z,19.06
2019-06-11T21:30:42.623Z,18.95
2019-06-11T21:33:10.923Z,18.95
2019-06-11T21:35:43.340Z,18.89
2019-06-11T21:38:10.844Z,18.89
2019-06-11T21:40:39.768Z,18.91
2019-06-11T21:43:11.531Z,18.81
2019-06-11T21:45:41.696Z,18.74
2019-06-11T21:48:11.874Z,18.74
2019-06-11T21:50:44.208Z,18.61
2019-06-11T21:53:11.153Z,18.61
2019-06-11T21:55:42.441Z,18.44
2019-06-11T21:58:10.601Z,18.44
2019-06-11T22:00:43.943Z,18.50
2019-06-11T22:03:11.811Z,18.50
2019-06-11T22:05:40.536Z,18.56
2019-06-11T22:08:10.433Z,18.48
2019-06-11T22:10:41.634Z,18.37
2019-06-11T22:13:10.696Z,18.28
2019-06-11T22:15:41.857Z,18.28
2019-06-11T22:18:10.460Z,18.15
2019-06-11T22:20:41.848Z,18.20
2019-06-11T22:23:15.691Z,18.20
2019-06-11T22:25:45.603Z,18.04
2019-06-11T22:28:14.412Z,17.57
2019-06-11T22:30:45.103Z,17.41
2019-06-11T22:33:13.905Z,17.41
2019-06-11T22:35:45.687Z,17.56
2019-06-11T22:38:13.438Z,17.56
2019-06-11T22:40:44.232Z,17.64
2019-06-11T22:43:12.723Z,17.64
2019-06-11T22:45:42.805Z,17.67
2019-06-11T22:48:11.600Z,17.64
2019-06-11T22:50:43.089Z,17.67
2019-06-11T22:53:10.868Z,17.67
2019-06-11T22:55:40.397Z,17.76
2019-06-11T22:58:10.814Z,17.80
2019-06-11T23:00:43.363Z,17.81
2019-06-11T23:03:10.925Z,17.74
2019-06-11T23:05:42.488Z,17.66
2019-06-11T23:08:11.115Z,17.66
2019-06-11T23:10:41.130Z,17.67
2019-06-11T23:13:10.410Z,17.51
2019-06-11T23:15:41.060Z,17.51
2019-06-11T23:18:10.470Z,17.52
2019-06-11T23:20:40.195Z,17.62
2019-06-11T23:23:11.213Z,17.63
2019-06-11T23:25:41.094Z,17.56
2019-06-11T23:28:09.650Z,17.45
2019-06-11T23:30:40.326Z,17.57
2019-06-11T23:33:08.870Z,17.57
2019-06-11T23:35:37.452Z,17.58
2019-06-11T23:38:11.404Z,17.58
2019-06-11T23:40:40.209Z,17.60
2019-06-11T23:43:10.165Z,17.61
2019-06-11T23:45:40.436Z,17.75
2019-06-11T23:48:11.236Z,17.75
2019-06-11T23:50:40.001Z,17.67
2019-06-11T23:53:10.388Z,17.58
2019-06-11T23:55:39.177Z,17.58
2019-06-11T23:58:10.020Z,17.63
